This is the latest recevied weather packets stored in our database for station/object KD5UMO-1. If no packets are shown the sender has not sent any weather packets the latest 10 day(s).
| Time | Temp. | Humidity | Pressure | Rain* | Wind** | Luminosity | Snow |
|---|---|---|---|---|---|---|---|
| 1777997264 | 25.56° C | 73% | 1005.2 hPa | 0 mm | - | 477 W/m² | - |
| 1777996962 | 25.56° C | 73% | 1005.2 hPa | 0 mm | - | 530 W/m² | - |
| 1777996658 | 26.11° C | 72% | 1004.7 hPa | 0 mm | - | 477 W/m² | - |
| 1777996354 | 25.56° C | 74% | 1005 hPa | 0 mm | - | 490 W/m² | - |
| 1777996051 | 25.56° C | 74% | 1004.8 hPa | 0 mm | - | 441 W/m² | - |
| 1777995747 | 25.56° C | 74% | 1004.8 hPa | 0 mm | - | 400 W/m² | - |
| 1777995444 | 25.56° C | 75% | 1004.9 hPa | 0 mm | - | 395 W/m² | - |
| 1777995141 | 25.56° C | 74% | 1004.8 hPa | 0 mm | - | 422 W/m² | - |
| 1777994838 | 25.56° C | 75% | 1004.6 hPa | 0 mm | - | 460 W/m² | - |
| 1777994534 | 25° C | 75% | 1004.9 hPa | 0 mm | - | 346 W/m² | - |
| 1777994229 | 25° C | 76% | 1004.9 hPa | 0 mm | - | 600 W/m² | - |
| 1777993927 | 24.44° C | 77% | 1005.1 hPa | 0 mm | - | 292 W/m² | - |
| 1777993622 | 24.44° C | 77% | 1005.1 hPa | 0 mm | - | 304 W/m² | - |
| 1777993322 | 24.44° C | 77% | 1005 hPa | 0 mm | - | 286 W/m² | - |
| 1777993020 | 24.44° C | 77% | 1005.1 hPa | 0 mm | - | 303 W/m² | - |
| 1777992720 | 25° C | 76% | 1004.9 hPa | 0 mm | - | 363 W/m² | - |
| 1777992416 | 24.44° C | 78% | 1005 hPa | 0 mm | - | 431 W/m² | - |
| 1777992114 | 24.44° C | 78% | 1005 hPa | 0 mm | - | 438 W/m² | - |
| 1777991811 | 24.44° C | 77% | 1005 hPa | 0 mm | - | 325 W/m² | - |
| 1777991508 | 24.44° C | 78% | 1004.8 hPa | 0 mm | - | 256 W/m² | - |
| 1777991205 | 23.89° C | 78% | 1005 hPa | 0 mm | - | 241 W/m² | - |
| 1777990903 | 23.89° C | 79% | 1004.9 hPa | 0 mm | - | 246 W/m² | - |
| 1777990600 | 23.89° C | 80% | 1005.2 hPa | 0 mm | - | 201 W/m² | - |
| 1777989993 | 23.33° C | 81% | 1005 hPa | 0 mm | - | 222 W/m² | - |
| 1777989690 | 23.33° C | 81% | 1005 hPa | 0 mm | - | 194 W/m² | - |
* Rain latest hour (hover to see other rain measurements)
** Current wind speed in m/s (hover to see current wind gust speed)